Dillingham Airport Dillingham US
ICAO: PADL
IATA:
Category: Medium
Scheduled Services:

Elevation: 81 ft
TransAlt. 18000 ft.

Airport Communications:
ATIS:125
AWOS 3:135.55
ANCHORAGE CNTR:132.75
CTAF:123.6
RDO:122.3

PADL Zoom In..

Runways:

(A) RW 01 length 6400 ft width 150 ft
LOC 111.90 / hdg 11

(B) RW 19 length 6400 ft width 150 ft
LOC 111.90 / hdg 191

Location; PADL
Day. 20 / Time. 02.56 Zulu
* Altimeter: 30.24
* Temperature: 17° c. 62.6°f.
* Wind from: 000° Speed 00 kn.
Dewpoint: 11° c.
Visibility: 10 Statute Miles.
Clouds: Scattered 2600 ft.

PADL 200256Z 00000KT 10SM SCT026 17/11 A3024 RMK AO2 SLP246 T01720111 58007


Wind - Calm.

 
 
jpsmedia.com for Web Design worldairports.se 2018   terms of use